Search for airport 
image banner adimage banner adimage banner ad
image banner ad

KEED - Needles

Located in Needles, United States

ICAO - EED, IATA - EED

Data provided by Airmate  

General information

Coordinates: N34°45'59" W114°37'24"
Elevation is 983 feet MSL.
Magnetic variation is 14° East
View others Airports in California

Operational data

Special qualification required
Current time UTC:
Current local time:
Weather
METAR: KEED 211256Z AUTO VRB03KT 10SM CLR 33/M02 A2979 RMK AO2 SLP047 T03281017
TAF: KEED 211132Z 2112/2212 VRB05KT P6SM SKC FM211800 21012G22KT P6SM SKC FM220300 25010KT P6SM SKC
View NOTAMs / SUP AIP / TFR affecting this airport [VIEW]
Communications frequencies: [VIEW]

Runways:

RWY identifierQFULength (ft)Width (ft)SurfaceLDA (ft)
0229°4235100ASPH
20209°4235100ASPH
11119°5005100ASPH
29299°5005100ASPH

Airport contact information

Address: Needles United States

Satellite view of KEED